Time;durP1;ratioP1;P1;durP2;ratioP2;P2;SDS_P1;SDS_P2;PMS_P1;PMS_P2;Temp;Humidity;BMP_temperature;BMP_pressure;BME280_temperature;BME280_humidity;BME280_pressure;Samples;Min_cycle;Max_cycle;Signal;HPM_P1;HPM_P2
2022/01/03 00:02:24;;;;;;;;;;;23.70;57.60;;;;;;5079661;28;1008;-36
2022/01/03 00:04:51;;;;;;;;;;;23.70;57.70;;;;;;5079140;28;1009;-37
2022/01/03 00:07:19;;;;;;;;;;;23.70;57.60;;;;;;5079075;28;1115;-36
2022/01/03 00:09:46;;;;;;;;;;;23.70;57.70;;;;;;5078816;28;1013;-37
2022/01/03 00:12:13;;;;;;;;;;;23.70;57.60;;;;;;5078938;28;972;-36
2022/01/03 00:14:40;;;;;;;;;;;23.70;57.60;;;;;;5079340;28;1025;-37
2022/01/03 00:17:07;;;;;;;;;;;23.70;57.60;;;;;;5079072;28;1017;-36
2022/01/03 00:19:34;;;;;;;;;;;23.70;57.60;;;;;;5079004;28;1906;-36
2022/01/03 00:22:05;;;;;;;;;;;23.70;57.50;;;;;;5078794;28;1008;-36
2022/01/03 00:24:33;;;;;;;;;;;23.70;57.60;;;;;;5078757;28;1033;-37
2022/01/03 00:27:01;;;;;;;;;;;23.70;57.80;;;;;;5078796;28;1009;-36
2022/01/03 00:29:30;;;;;;;;;;;23.70;57.60;;;;;;5078911;28;1008;-37
2022/01/03 00:31:57;;;;;;;;;;;23.70;57.60;;;;;;5078561;28;941;-37
2022/01/03 00:34:27;;;;;;;;;;;23.70;57.60;;;;;;5078829;28;973;-36
2022/01/03 00:36:54;;;;;;;;;;;23.70;57.50;;;;;;5079297;28;1001;-36
2022/01/03 00:39:22;;;;;;;;;;;23.70;57.40;;;;;;5078233;28;1979;-36
2022/01/03 00:41:50;;;;;;;;;;;23.70;57.50;;;;;;5078099;28;1008;-36
2022/01/03 00:44:17;;;;;;;;;;;23.60;57.50;;;;;;5079104;28;1028;-36
2022/01/03 00:46:45;;;;;;;;;;;23.70;57.50;;;;;;5078530;28;1923;-36
2022/01/03 00:49:12;;;;;;;;;;;23.70;57.40;;;;;;5078608;28;1427;-37
2022/01/03 00:51:39;;;;;;;;;;;23.70;57.40;;;;;;5079086;28;1020;-36
2022/01/03 00:54:05;;;;;;;;;;;23.70;57.40;;;;;;5078523;28;936;-38
2022/01/03 00:56:34;;;;;;;;;;;23.60;57.40;;;;;;5078829;28;1869;-37
2022/01/03 00:59:06;;;;;;;;;;;23.60;57.40;;;;;;5078624;28;1905;-37
2022/01/03 01:01:36;;;;;;;;;;;23.60;57.40;;;;;;5078836;28;1046;-36
2022/01/03 01:04:03;;;;;;;;;;;23.60;57.50;;;;;;5078746;28;928;-36
2022/01/03 01:06:33;;;;;;;;;;;23.60;57.40;;;;;;5078590;28;1460;-37
2022/01/03 01:09:01;;;;;;;;;;;23.60;57.40;;;;;;5078852;28;1005;-36
2022/01/03 01:11:33;;;;;;;;;;;23.60;57.30;;;;;;5079028;28;1029;-36
2022/01/03 01:14:00;;;;;;;;;;;23.60;57.40;;;;;;5078416;28;1040;-36
2022/01/03 01:16:28;;;;;;;;;;;23.60;57.30;;;;;;5078521;28;1085;-36
2022/01/03 01:18:55;;;;;;;;;;;23.60;57.50;;;;;;5078621;28;1902;-36
2022/01/03 01:21:22;;;;;;;;;;;23.60;57.30;;;;;;5078673;28;1056;-37
2022/01/03 01:23:51;;;;;;;;;;;23.60;57.30;;;;;;5077866;28;969;-37
2022/01/03 01:29:03;;;;;;;;;;;23.60;57.40;;;;;;5078039;28;616;-41
2022/01/03 01:31:33;;;;;;;;;;;23.50;57.40;;;;;;5078070;28;996;-37
2022/01/03 01:34:01;;;;;;;;;;;23.60;57.50;;;;;;5078400;28;1009;-36
2022/01/03 01:36:28;;;;;;;;;;;23.60;57.50;;;;;;5078488;28;1013;-36
2022/01/03 01:38:59;;;;;;;;;;;23.60;57.60;;;;;;5077881;28;1878;-39
2022/01/03 01:41:27;;;;;;;;;;;23.50;57.30;;;;;;5078228;28;1041;-36
2022/01/03 01:43:57;;;;;;;;;;;23.60;57.30;;;;;;5081085;28;1152;-37
2022/01/03 01:46:24;;;;;;;;;;;23.50;57.20;;;;;;5082492;28;1021;-36
2022/01/03 01:48:53;;;;;;;;;;;23.50;57.40;;;;;;5082498;28;1028;-36
2022/01/03 01:51:21;;;;;;;;;;;23.50;57.30;;;;;;5082500;28;960;-37
2022/01/03 01:53:48;;;;;;;;;;;23.50;57.30;;;;;;5081506;28;993;-36
2022/01/03 01:56:17;;;;;;;;;;;23.50;57.40;;;;;;5082020;28;1020;-36
2022/01/03 01:58:51;;;;;;;;;;;23.50;57.30;;;;;;5082040;28;1902;-36
2022/01/03 02:01:19;;;;;;;;;;;23.50;57.50;;;;;;5082554;28;1044;-37
2022/01/03 02:03:48;;;;;;;;;;;23.50;57.40;;;;;;5081728;28;1005;-36
2022/01/03 02:06:30;;;;;;;;;;;23.50;57.20;;;;;;5081944;28;1004;-36
2022/01/03 02:09:05;;;;;;;;;;;23.50;57.20;;;;;;5081522;28;929;-37
2022/01/03 02:11:46;;;;;;;;;;;23.50;57.20;;;;;;5081824;28;1014;-37
2022/01/03 02:14:12;;;;;;;;;;;23.50;57.20;;;;;;5081732;28;1028;-36
2022/01/03 02:16:39;;;;;;;;;;;23.50;57.20;;;;;;5081105;28;1842;-36
2022/01/03 02:19:06;;;;;;;;;;;23.50;57.20;;;;;;5081706;28;1902;-37
2022/01/03 02:21:34;;;;;;;;;;;23.50;57.20;;;;;;5081329;28;1030;-36
2022/01/03 02:24:01;;;;;;;;;;;23.50;57.20;;;;;;5081317;28;948;-36
2022/01/03 02:26:28;;;;;;;;;;;23.50;57.00;;;;;;5081711;28;1133;-37
2022/01/03 02:28:55;;;;;;;;;;;23.50;57.10;;;;;;5081506;28;993;-36
2022/01/03 02:31:22;;;;;;;;;;;23.50;57.10;;;;;;5081506;28;1013;-36
2022/01/03 02:33:49;;;;;;;;;;;23.40;57.00;;;;;;5081307;28;1104;-36
2022/01/03 02:36:16;;;;;;;;;;;23.40;57.00;;;;;;5081365;28;929;-38
2022/01/03 02:38:45;;;;;;;;;;;23.50;57.10;;;;;;5080990;28;1987;-36
2022/01/03 02:41:11;;;;;;;;;;;23.40;58.10;;;;;;5081641;28;1049;-37
2022/01/03 02:43:38;;;;;;;;;;;23.40;57.20;;;;;;5081182;28;940;-36
2022/01/03 02:46:05;;;;;;;;;;;23.40;57.10;;;;;;5081248;28;937;-36
2022/01/03 02:48:32;;;;;;;;;;;23.40;57.20;;;;;;5080989;28;1304;-37
2022/01/03 02:50:59;;;;;;;;;;;23.40;57.30;;;;;;5081260;28;1027;-36
2022/01/03 02:53:26;;;;;;;;;;;23.40;57.30;;;;;;5080528;28;937;-37
2022/01/03 02:55:54;;;;;;;;;;;23.40;57.10;;;;;;5080092;28;997;-36
2022/01/03 02:58:20;;;;;;;;;;;23.40;57.30;;;;;;5080891;28;1025;-36
2022/01/03 03:00:49;;;;;;;;;;;23.40;57.20;;;;;;5080869;28;1867;-39
2022/01/03 03:03:17;;;;;;;;;;;23.40;57.20;;;;;;5080786;28;981;-37
2022/01/03 03:05:44;;;;;;;;;;;23.40;57.20;;;;;;5080145;28;1161;-37
2022/01/03 03:08:11;;;;;;;;;;;23.40;57.20;;;;;;5081115;28;1004;-36
2022/01/03 03:10:38;;;;;;;;;;;23.40;57.20;;;;;;5080568;28;942;-36
2022/01/03 03:13:06;;;;;;;;;;;23.40;57.20;;;;;;5080105;28;960;-37
2022/01/03 03:15:34;;;;;;;;;;;23.40;57.20;;;;;;5080901;28;993;-36
2022/01/03 03:18:01;;;;;;;;;;;23.40;57.10;;;;;;5080599;28;1017;-36
2022/01/03 03:20:28;;;;;;;;;;;23.40;57.20;;;;;;5080497;28;1985;-36
2022/01/03 03:22:55;;;;;;;;;;;23.40;57.00;;;;;;5079965;28;937;-36
2022/01/03 03:25:23;;;;;;;;;;;23.40;56.80;;;;;;5080688;28;1004;-36
2022/01/03 03:27:50;;;;;;;;;;;23.40;56.90;;;;;;5080173;28;1108;-36
2022/01/03 03:30:20;;;;;;;;;;;23.40;56.60;;;;;;5080326;28;976;-36
2022/01/03 03:32:47;;;;;;;;;;;23.40;56.80;;;;;;5080013;28;1023;-36
2022/01/03 03:35:14;;;;;;;;;;;23.40;56.90;;;;;;5080268;28;1000;-36
2022/01/03 03:40:55;;;;;;;;;;;23.40;56.80;;;;;;5079629;28;1930;-36
2022/01/03 03:43:21;;;;;;;;;;;23.30;56.90;;;;;;5079866;28;1067;-36
2022/01/03 03:45:50;;;;;;;;;;;23.40;55.70;;;;;;5080069;28;1001;-36
2022/01/03 03:48:17;;;;;;;;;;;23.40;56.70;;;;;;5079981;28;1020;-36
2022/01/03 03:50:44;;;;;;;;;;;23.40;56.70;;;;;;5079730;28;1005;-36
2022/01/03 03:53:11;;;;;;;;;;;23.40;56.80;;;;;;5079461;28;1001;-36
2022/01/03 03:55:38;;;;;;;;;;;23.30;56.70;;;;;;5079883;28;993;-36
2022/01/03 03:58:05;;;;;;;;;;;23.40;56.50;;;;;;5079612;28;1004;-36
2022/01/03 04:00:32;;;;;;;;;;;23.30;56.60;;;;;;5079723;28;1980;-36
2022/01/03 04:03:00;;;;;;;;;;;23.30;56.60;;;;;;5079106;28;1005;-37
2022/01/03 04:05:27;;;;;;;;;;;23.30;56.50;;;;;;5079200;28;1040;-36
2022/01/03 04:07:54;;;;;;;;;;;23.30;56.70;;;;;;5079473;28;1037;-37
2022/01/03 04:10:20;;;;;;;;;;;23.30;56.90;;;;;;5079547;28;960;-36
2022/01/03 04:12:47;;;;;;;;;;;23.30;56.80;;;;;;5079361;28;1031;-44
2022/01/03 04:15:14;;;;;;;;;;;23.30;56.70;;;;;;5079640;28;1008;-42
2022/01/03 04:17:41;;;;;;;;;;;23.30;56.70;;;;;;5079088;28;1004;-40
2022/01/03 04:20:10;;;;;;;;;;;23.30;56.60;;;;;;5078673;28;1902;-43
2022/01/03 04:22:37;;;;;;;;;;;23.30;56.60;;;;;;5079400;28;920;-42
2022/01/03 04:25:04;;;;;;;;;;;23.30;57.10;;;;;;5078666;28;1431;-44
2022/01/03 04:27:31;;;;;;;;;;;23.30;56.70;;;;;;5078909;28;944;-44
2022/01/03 04:29:58;;;;;;;;;;;23.30;56.60;;;;;;5078913;28;933;-41
2022/01/03 04:32:25;;;;;;;;;;;23.30;56.50;;;;;;5078463;28;997;-44
2022/01/03 04:34:51;;;;;;;;;;;23.30;56.40;;;;;;5078643;28;1126;-45
2022/01/03 04:37:20;;;;;;;;;;;23.30;56.40;;;;;;5078654;28;993;-41
2022/01/03 04:39:46;;;;;;;;;;;23.30;56.40;;;;;;5078181;28;1957;-43
2022/01/03 04:42:13;;;;;;;;;;;23.30;56.40;;;;;;5078080;28;1049;-42
2022/01/03 04:44:40;;;;;;;;;;;23.30;56.40;;;;;;5078202;28;985;-40
2022/01/03 04:47:06;;;;;;;;;;;23.30;56.40;;;;;;5078221;28;1021;-44
2022/01/03 04:49:34;;;;;;;;;;;23.30;56.40;;;;;;5078666;28;988;-44
2022/01/03 04:52:01;;;;;;;;;;;23.30;56.50;;;;;;5078589;28;1035;-44
2022/01/03 04:54:29;;;;;;;;;;;23.30;56.40;;;;;;5078099;28;1005;-41
2022/01/03 04:56:59;;;;;;;;;;;23.30;56.40;;;;;;5078491;28;1004;-44
2022/01/03 04:59:25;;;;;;;;;;;23.30;56.40;;;;;;5077915;28;1911;-44
2022/01/03 05:01:52;;;;;;;;;;;23.30;56.40;;;;;;5078099;28;990;-44
2022/01/03 05:04:19;;;;;;;;;;;23.30;56.50;;;;;;5077987;28;1025;-43
2022/01/03 05:06:46;;;;;;;;;;;23.30;56.40;;;;;;5078048;28;1242;-42
2022/01/03 05:09:12;;;;;;;;;;;23.30;56.30;;;;;;5078175;28;1024;-44
2022/01/03 05:11:41;;;;;;;;;;;23.30;56.40;;;;;;5076932;28;955;-36
2022/01/03 05:14:08;;;;;;;;;;;23.30;56.40;;;;;;5078346;28;1016;-38
2022/01/03 05:16:35;;;;;;;;;;;23.30;56.40;;;;;;5077665;28;972;-36
2022/01/03 05:19:02;;;;;;;;;;;23.20;56.40;;;;;;5077394;28;933;-36
2022/01/03 05:21:28;;;;;;;;;;;23.30;56.40;;;;;;5077574;28;1905;-36
2022/01/03 05:23:55;;;;;;;;;;;23.20;56.40;;;;;;5078145;28;1001;-36
2022/01/03 05:26:22;;;;;;;;;;;23.30;56.40;;;;;;5078164;28;1104;-36
2022/01/03 05:28:50;;;;;;;;;;;23.30;56.40;;;;;;5078193;28;1016;-37
2022/01/03 05:31:16;;;;;;;;;;;23.20;56.50;;;;;;5078038;28;1015;-37
2022/01/03 05:33:43;;;;;;;;;;;23.10;56.60;;;;;;5078008;28;1003;-37
2022/01/03 05:36:10;;;;;;;;;;;23.10;56.60;;;;;;5077901;28;1075;-37
2022/01/03 05:38:37;;;;;;;;;;;23.10;56.70;;;;;;5077636;28;993;-36
2022/01/03 05:41:04;;;;;;;;;;;23.10;56.80;;;;;;5077772;28;1903;-36
2022/01/03 05:43:30;;;;;;;;;;;23.10;57.00;;;;;;5077673;28;1013;-36
2022/01/03 05:45:58;;;;;;;;;;;23.10;57.00;;;;;;5078286;28;1808;-36
2022/01/03 05:48:25;;;;;;;;;;;23.10;58.10;;;;;;5077903;28;1032;-37
2022/01/03 05:50:52;;;;;;;;;;;23.10;57.00;;;;;;5077686;28;1025;-36
2022/01/03 05:53:18;;;;;;;;;;;23.10;57.20;;;;;;5077528;28;1003;-36
2022/01/03 05:55:46;;;;;;;;;;;23.20;56.70;;;;;;5077686;28;1008;-36
2022/01/03 05:58:13;;;;;;;;;;;23.10;56.70;;;;;;5069907;28;2551;-37
2022/01/03 06:00:40;;;;;;;;;;;23.10;56.80;;;;;;5057609;28;1898;-36
2022/01/03 06:03:08;;;;;;;;;;;23.10;57.30;;;;;;5057029;28;1026;-37
2022/01/03 06:05:53;;;;;;;;;;;23.20;56.90;;;;;;5057138;28;1004;-36
2022/01/03 06:08:20;;;;;;;;;;;23.10;56.90;;;;;;5057450;28;1018;-36
2022/01/03 06:10:47;;;;;;;;;;;23.10;57.10;;;;;;5055694;28;930;-36
2022/01/03 06:13:14;;;;;;;;;;;23.10;57.10;;;;;;5057535;28;1017;-36
2022/01/03 06:15:42;;;;;;;;;;;23.10;57.20;;;;;;5057642;28;988;-36
2022/01/03 06:18:12;;;;;;;;;;;23.20;57.20;;;;;;5056806;28;929;-35
2022/01/03 06:20:39;;;;;;;;;;;23.40;56.70;;;;;;5056479;28;1906;-37
2022/01/03 06:23:06;;;;;;;;;;;23.40;56.50;;;;;;5056835;28;949;-37
2022/01/03 06:25:33;;;;;;;;;;;23.40;56.80;;;;;;5056634;28;956;-36
2022/01/03 06:27:59;;;;;;;;;;;23.30;58.10;;;;;;5056309;28;1006;-36
2022/01/03 06:30:26;;;;;;;;;;;23.40;57.10;;;;;;5059807;28;1001;-38
2022/01/03 06:32:53;;;;;;;;;;;23.40;57.10;;;;;;5060735;28;941;-43
2022/01/03 06:35:21;;;;;;;;;;;23.40;57.20;;;;;;5060961;28;1810;-41
2022/01/03 06:37:48;;;;;;;;;;;23.50;57.20;;;;;;5060136;28;985;-42
2022/01/03 06:40:15;;;;;;;;;;;23.40;57.10;;;;;;5059987;28;1902;-42
2022/01/03 06:42:41;;;;;;;;;;;23.50;57.20;;;;;;5059838;28;953;-41
2022/01/03 06:45:08;;;;;;;;;;;23.40;56.90;;;;;;5060777;28;1064;-42
2022/01/03 06:47:36;;;;;;;;;;;23.30;57.30;;;;;;5059845;28;1839;-42
2022/01/03 06:50:02;;;;;;;;;;;23.30;57.30;;;;;;5060016;28;997;-45
2022/01/03 06:52:30;;;;;;;;;;;23.30;57.40;;;;;;5059671;28;1000;-41
2022/01/03 06:54:57;;;;;;;;;;;23.20;57.40;;;;;;5059391;28;1143;-42
2022/01/03 06:57:24;;;;;;;;;;;23.20;57.40;;;;;;5059411;28;974;-42
2022/01/03 06:59:50;;;;;;;;;;;23.20;57.40;;;;;;5058987;28;1902;-44
2022/01/03 07:02:17;;;;;;;;;;;23.20;57.50;;;;;;5059746;28;1168;-43
2022/01/03 07:04:44;;;;;;;;;;;23.20;57.30;;;;;;5059272;28;1756;-42
2022/01/03 07:07:11;;;;;;;;;;;23.20;57.40;;;;;;5059402;28;1124;-44
2022/01/03 07:09:39;;;;;;;;;;;23.20;57.40;;;;;;5059079;28;1045;-42
2022/01/03 07:12:06;;;;;;;;;;;23.10;57.30;;;;;;5059737;28;1013;-44
2022/01/03 07:20:02;;;;;;;;;;;23.10;57.40;;;;;;5059294;28;2001;-45
2022/01/03 07:22:30;;;;;;;;;;;23.10;57.40;;;;;;5059599;28;925;-44
2022/01/03 07:24:58;;;;;;;;;;;23.10;57.30;;;;;;5059227;28;1027;-42
2022/01/03 07:27:25;;;;;;;;;;;23.20;57.40;;;;;;5059226;28;1040;-45
2022/01/03 07:29:53;;;;;;;;;;;23.10;57.30;;;;;;5058490;28;1020;-45
2022/01/03 07:32:20;;;;;;;;;;;23.20;57.30;;;;;;5059069;28;964;-40
2022/01/03 07:34:46;;;;;;;;;;;23.10;57.30;;;;;;5058737;28;1046;-40
2022/01/03 07:37:13;;;;;;;;;;;23.10;57.30;;;;;;5058868;28;1021;-41
2022/01/03 07:39:40;;;;;;;;;;;23.20;57.40;;;;;;5058752;28;973;-40
2022/01/03 07:42:08;;;;;;;;;;;23.10;57.40;;;;;;5057578;28;1980;-41
2022/01/03 07:44:35;;;;;;;;;;;23.10;57.40;;;;;;5057848;28;1026;-39
2022/01/03 07:47:02;;;;;;;;;;;23.10;57.30;;;;;;5058928;28;977;-40
2022/01/03 07:49:29;;;;;;;;;;;23.10;57.30;;;;;;5058872;28;1040;-42
2022/01/03 07:51:56;;;;;;;;;;;23.10;57.30;;;;;;5058492;28;1053;-41
2022/01/03 07:54:23;;;;;;;;;;;23.10;57.30;;;;;;5059148;28;998;-40
2022/01/03 07:56:50;;;;;;;;;;;23.10;57.20;;;;;;5058190;28;1021;-41
2022/01/03 07:59:18;;;;;;;;;;;23.10;57.30;;;;;;5058157;28;1001;-43
2022/01/03 08:01:44;;;;;;;;;;;23.10;57.30;;;;;;5058096;28;1987;-40
2022/01/03 08:04:11;;;;;;;;;;;23.10;57.40;;;;;;5057916;28;1000;-41
2022/01/03 08:06:38;;;;;;;;;;;23.10;57.20;;;;;;5057558;28;1096;-37
2022/01/03 08:09:04;;;;;;;;;;;23.10;57.10;;;;;;5058048;28;930;-37
2022/01/03 08:11:31;;;;;;;;;;;23.10;57.20;;;;;;5058098;28;1104;-37
2022/01/03 08:13:58;;;;;;;;;;;23.10;57.20;;;;;;5057299;28;1013;-37
2022/01/03 08:16:26;;;;;;;;;;;23.20;57.10;;;;;;5057532;28;1911;-37
2022/01/03 08:18:53;;;;;;;;;;;23.10;57.10;;;;;;5057398;28;913;-37
2022/01/03 08:21:20;;;;;;;;;;;23.10;57.00;;;;;;5058028;28;1985;-36
2022/01/03 08:23:46;;;;;;;;;;;23.10;57.10;;;;;;5057597;28;990;-36
2022/01/03 08:26:13;;;;;;;;;;;23.10;57.10;;;;;;5058046;28;954;-38
2022/01/03 08:28:40;;;;;;;;;;;23.10;57.10;;;;;;5057943;28;929;-37
2022/01/03 08:31:07;;;;;;;;;;;23.10;57.10;;;;;;5056692;28;1225;-36
2022/01/03 08:33:35;;;;;;;;;;;23.10;58.30;;;;;;5057516;28;1785;-37
2022/01/03 08:36:02;;;;;;;;;;;23.10;57.10;;;;;;5058437;28;954;-35
2022/01/03 08:38:28;;;;;;;;;;;23.10;57.00;;;;;;5057534;28;989;-37
2022/01/03 08:40:55;;;;;;;;;;;23.10;57.10;;;;;;5057128;28;1905;-37
2022/01/03 08:43:23;;;;;;;;;;;23.10;57.00;;;;;;5057450;28;1018;-43
2022/01/03 08:45:50;;;;;;;;;;;23.10;56.90;;;;;;5057507;28;1320;-43
2022/01/03 08:48:17;;;;;;;;;;;23.10;57.00;;;;;;5057012;28;938;-42
2022/01/03 08:50:45;;;;;;;;;;;23.10;56.90;;;;;;5057631;28;983;-44
2022/01/03 08:53:12;;;;;;;;;;;23.00;56.80;;;;;;5056257;28;932;-37
2022/01/03 08:55:40;;;;;;;;;;;23.10;57.00;;;;;;5057717;28;1034;-42
2022/01/03 08:58:07;;;;;;;;;;;23.10;56.80;;;;;;5057401;28;977;-42
2022/01/03 09:00:34;;;;;;;;;;;23.10;56.90;;;;;;5057181;28;1902;-43
2022/01/03 09:03:01;;;;;;;;;;;23.00;56.80;;;;;;5057102;28;940;-40
2022/01/03 09:05:27;;;;;;;;;;;23.10;56.90;;;;;;5056890;28;993;-38
2022/01/03 09:07:56;;;;;;;;;;;23.00;56.80;;;;;;5056802;28;1152;-37
2022/01/03 09:10:23;;;;;;;;;;;23.00;56.80;;;;;;5056301;28;1176;-37
2022/01/03 09:12:49;;;;;;;;;;;23.00;56.80;;;;;;5056492;28;822;-44
2022/01/03 09:15:16;;;;;;;;;;;23.00;56.90;;;;;;5056729;28;1083;-37
2022/01/03 09:17:43;;;;;;;;;;;23.00;56.80;;;;;;5056569;28;1001;-42
2022/01/03 09:20:10;;;;;;;;;;;23.00;56.80;;;;;;5056727;28;1032;-41
2022/01/03 09:22:42;;;;;;;;;;;23.00;56.70;;;;;;5056956;28;1898;-42
2022/01/03 09:30:39;;;;;;;;;;;23.00;56.60;;;;;;5056293;28;878;-35
2022/01/03 09:33:06;;;;;;;;;;;23.00;56.50;;;;;;5055599;28;1057;-35
2022/01/03 09:35:33;;;;;;;;;;;23.00;56.60;;;;;;5056219;28;997;-35
2022/01/03 09:38:00;;;;;;;;;;;23.00;56.60;;;;;;5056153;28;900;-39
2022/01/03 09:40:28;;;;;;;;;;;23.00;56.60;;;;;;5055799;28;958;-38
2022/01/03 09:42:57;;;;;;;;;;;23.00;56.60;;;;;;5056169;28;2000;-37
2022/01/03 09:45:26;;;;;;;;;;;23.00;57.80;;;;;;5056415;28;1013;-38
2022/01/03 09:47:54;;;;;;;;;;;23.00;56.60;;;;;;5055547;28;1001;-37
2022/01/03 09:50:21;;;;;;;;;;;23.00;56.60;;;;;;5056028;28;996;-37
2022/01/03 09:52:48;;;;;;;;;;;23.00;56.40;;;;;;5056638;28;933;-43
2022/01/03 09:55:15;;;;;;;;;;;23.00;56.50;;;;;;5056691;28;996;-37
2022/01/03 09:57:45;;;;;;;;;;;23.00;56.50;;;;;;5055873;28;878;-37
2022/01/03 10:00:13;;;;;;;;;;;23.00;56.60;;;;;;5055894;28;1012;-37
2022/01/03 10:02:40;;;;;;;;;;;23.00;56.50;;;;;;5055979;28;1979;-38
2022/01/03 10:05:07;;;;;;;;;;;23.00;56.50;;;;;;5058614;28;982;-43
2022/01/03 10:07:34;;;;;;;;;;;23.00;56.60;;;;;;5060292;28;1099;-37
2022/01/03 10:10:01;;;;;;;;;;;23.00;56.60;;;;;;5059735;28;997;-43
2022/01/03 10:12:28;;;;;;;;;;;23.00;56.50;;;;;;5064009;28;942;-42
2022/01/03 10:14:58;;;;;;;;;;;23.00;56.50;;;;;;5060035;28;1036;-43
2022/01/03 10:17:25;;;;;;;;;;;23.00;56.40;;;;;;5059994;28;997;-45
2022/01/03 10:19:55;;;;;;;;;;;23.00;56.40;;;;;;5060084;28;1232;-42
2022/01/03 10:22:23;;;;;;;;;;;23.00;56.50;;;;;;5059252;28;1960;-45
2022/01/03 10:24:50;;;;;;;;;;;23.00;56.40;;;;;;5059209;28;1011;-44
2022/01/03 10:27:16;;;;;;;;;;;23.00;56.30;;;;;;5059844;28;843;-42
2022/01/03 10:29:53;;;;;;;;;;;23.00;56.40;;;;;;5060220;28;1101;-36
2022/01/03 10:32:28;;;;;;;;;;;22.90;56.40;;;;;;5060260;28;938;-34
2022/01/03 10:34:55;;;;;;;;;;;23.00;56.40;;;;;;5059920;28;1250;-34
2022/01/03 10:37:33;;;;;;;;;;;23.00;56.40;;;;;;5059461;28;998;-34
2022/01/03 10:40:00;;;;;;;;;;;23.00;56.30;;;;;;5059077;28;946;-35
2022/01/03 10:42:26;;;;;;;;;;;22.90;56.40;;;;;;5058914;28;1976;-37
2022/01/03 10:44:53;;;;;;;;;;;22.90;56.30;;;;;;5059008;28;900;-37
2022/01/03 10:47:31;;;;;;;;;;;23.00;56.30;;;;;;5058422;28;994;-37
2022/01/03 10:49:58;;;;;;;;;;;23.00;56.30;;;;;;5058729;28;993;-36
2022/01/03 10:52:27;;;;;;;;;;;22.90;56.20;;;;;;5058767;28;1014;-37
2022/01/03 10:55:11;;;;;;;;;;;23.00;56.30;;;;;;5059015;28;1045;-37
2022/01/03 10:57:55;;;;;;;;;;;23.00;56.30;;;;;;5058024;28;934;-37
2022/01/03 11:00:23;;;;;;;;;;;23.00;56.30;;;;;;5058114;28;989;-37
2022/01/03 11:03:16;;;;;;;;;;;23.00;56.30;;;;;;5058616;28;1989;-37
2022/01/03 11:05:46;;;;;;;;;;;22.90;56.20;;;;;;5059256;28;1047;-37
2022/01/03 11:10:59;;;;;;;;;;;23.00;56.30;;;;;;5058572;28;902;-37
2022/01/03 11:13:26;;;;;;;;;;;23.00;56.30;;;;;;5058178;28;1035;-37
2022/01/03 11:15:54;;;;;;;;;;;23.00;56.30;;;;;;5057374;28;1901;-35
2022/01/03 11:18:24;;;;;;;;;;;23.00;56.30;;;;;;5058520;28;993;-36
2022/01/03 11:21:02;;;;;;;;;;;23.00;56.30;;;;;;5058819;28;971;-35
2022/01/03 11:23:28;;;;;;;;;;;23.00;56.30;;;;;;5059066;28;1910;-36
2022/01/03 11:25:55;;;;;;;;;;;23.00;56.30;;;;;;5058193;28;1471;-35
2022/01/03 11:28:22;;;;;;;;;;;23.00;56.30;;;;;;5057914;28;1026;-36
2022/01/03 11:30:49;;;;;;;;;;;23.00;56.30;;;;;;5058537;28;949;-35
2022/01/03 11:33:16;;;;;;;;;;;23.00;56.30;;;;;;5058774;28;992;-40
2022/01/03 11:35:49;;;;;;;;;;;22.90;56.30;;;;;;5057131;28;1032;-40
2022/01/03 11:38:19;;;;;;;;;;;23.00;56.30;;;;;;5057153;28;952;-41
2022/01/03 11:40:46;;;;;;;;;;;23.00;56.30;;;;;;5057929;28;1042;-39
2022/01/03 11:43:13;;;;;;;;;;;23.00;56.30;;;;;;5057278;28;1977;-41
2022/01/03 11:45:40;;;;;;;;;;;22.90;56.20;;;;;;5057631;28;922;-40
2022/01/03 11:48:07;;;;;;;;;;;22.90;56.20;;;;;;5057392;28;992;-40
2022/01/03 11:50:36;;;;;;;;;;;23.00;56.30;;;;;;5057043;28;1048;-43
2022/01/03 11:53:04;;;;;;;;;;;22.90;56.20;;;;;;5058377;28;851;-41
2022/01/03 11:55:31;;;;;;;;;;;22.90;56.20;;;;;;5057234;28;957;-40
2022/01/03 11:58:19;;;;;;;;;;;22.90;56.20;;;;;;5056272;28;1002;-40
2022/01/03 12:03:47;;;;;;;;;;;23.00;56.10;;;;;;5055420;28;653;-40
2022/01/03 12:06:23;;;;;;;;;;;23.00;56.10;;;;;;5055439;28;1025;-43
2022/01/03 12:08:54;;;;;;;;;;;22.90;56.20;;;;;;5055910;28;942;-39
2022/01/03 12:11:21;;;;;;;;;;;22.90;56.20;;;;;;5056959;28;1022;-39
2022/01/03 12:13:49;;;;;;;;;;;22.90;56.20;;;;;;5057199;28;957;-42
2022/01/03 12:16:16;;;;;;;;;;;23.00;56.10;;;;;;5057132;28;950;-40
2022/01/03 12:18:56;;;;;;;;;;;23.00;56.10;;;;;;5057645;28;1834;-43
2022/01/03 12:21:38;;;;;;;;;;;23.00;56.20;;;;;;5057614;28;1032;-36
2022/01/03 12:24:26;;;;;;;;;;;23.00;56.10;;;;;;5056914;28;1414;-35
2022/01/03 12:27:08;;;;;;;;;;;23.00;56.10;;;;;;5055544;28;1435;-41
2022/01/03 12:29:54;;;;;;;;;;;23.00;56.20;;;;;;5057119;28;1502;-35
2022/01/03 12:32:22;;;;;;;;;;;23.00;56.00;;;;;;5056345;28;1970;-35
2022/01/03 12:35:16;;;;;;;;;;;23.00;56.00;;;;;;5056830;28;1971;-35
2022/01/03 12:37:43;;;;;;;;;;;22.90;56.10;;;;;;5057838;28;914;-35
2022/01/03 12:40:13;;;;;;;;;;;22.90;56.00;;;;;;5056509;28;961;-35
2022/01/03 12:42:53;;;;;;;;;;;22.90;56.00;;;;;;5056093;28;2000;-36
2022/01/03 12:45:50;;;;;;;;;;;22.90;56.10;;;;;;5057459;28;1036;-35
2022/01/03 12:48:18;;;;;;;;;;;22.90;56.00;;;;;;5057134;28;922;-35
2022/01/03 12:50:46;;;;;;;;;;;23.00;55.90;;;;;;5056028;28;993;-35
2022/01/03 12:53:26;;;;;;;;;;;23.00;55.90;;;;;;5057281;28;1034;-39
2022/01/03 12:55:55;;;;;;;;;;;23.00;56.00;;;;;;5056180;28;997;-40
2022/01/03 12:58:38;;;;;;;;;;;23.00;55.90;;;;;;5056332;28;934;-42
2022/01/03 13:01:08;;;;;;;;;;;23.00;55.90;;;;;;5056109;28;1005;-41
2022/01/03 13:03:41;;;;;;;;;;;23.00;55.90;;;;;;5055618;28;1989;-40
2022/01/03 13:06:12;;;;;;;;;;;23.00;56.10;;;;;;5056275;28;1253;-42
2022/01/03 13:08:40;;;;;;;;;;;23.00;55.90;;;;;;5055624;28;929;-40
2022/01/03 13:11:09;;;;;;;;;;;23.00;55.70;;;;;;5057270;28;917;-42
2022/01/03 13:13:36;;;;;;;;;;;23.00;55.80;;;;;;5056039;28;944;-41
2022/01/03 13:16:17;;;;;;;;;;;23.00;55.80;;;;;;5056649;28;941;-39
2022/01/03 13:18:44;;;;;;;;;;;23.00;55.70;;;;;;5056052;28;1016;-39
2022/01/03 13:21:13;;;;;;;;;;;22.90;55.80;;;;;;5057085;28;945;-42
2022/01/03 13:23:40;;;;;;;;;;;23.00;55.80;;;;;;5055606;28;1905;-40
2022/01/03 13:26:08;;;;;;;;;;;23.00;55.80;;;;;;5055409;28;985;-40
2022/01/03 13:28:44;;;;;;;;;;;23.00;55.70;;;;;;5056321;28;921;-38
2022/01/03 13:31:13;;;;;;;;;;;23.00;55.60;;;;;;5056116;28;1001;-35
2022/01/03 13:33:40;;;;;;;;;;;23.00;55.70;;;;;;5056226;28;954;-35
2022/01/03 13:36:07;;;;;;;;;;;23.00;55.60;;;;;;5055049;28;934;-35
2022/01/03 13:38:34;;;;;;;;;;;23.00;55.60;;;;;;5055872;28;831;-36
2022/01/03 13:41:12;;;;;;;;;;;23.00;55.70;;;;;;5058796;28;1002;-35
2022/01/03 13:43:41;;;;;;;;;;;23.00;55.60;;;;;;5058352;28;1981;-37
2022/01/03 13:51:37;;;;;;;;;;;23.00;55.60;;;;;;5059019;28;745;-37
2022/01/03 13:54:04;;;;;;;;;;;23.00;55.50;;;;;;5058651;28;1001;-35
2022/01/03 13:56:41;;;;;;;;;;;23.00;55.50;;;;;;5058557;28;973;-35
2022/01/03 13:59:09;;;;;;;;;;;22.90;55.50;;;;;;5058886;28;989;-35
2022/01/03 14:01:36;;;;;;;;;;;23.00;55.60;;;;;;5057051;28;934;-35
2022/01/03 14:04:02;;;;;;;;;;;22.90;55.50;;;;;;5059369;28;1961;-35
2022/01/03 14:06:29;;;;;;;;;;;22.90;55.40;;;;;;5058118;28;1168;-35
2022/01/03 14:08:56;;;;;;;;;;;22.90;55.40;;;;;;5058948;28;994;-35
2022/01/03 14:11:23;;;;;;;;;;;22.90;55.30;;;;;;5059173;28;921;-35
2022/01/03 14:13:52;;;;;;;;;;;22.90;55.20;;;;;;5059506;28;1017;-43
2022/01/03 14:16:19;;;;;;;;;;;22.90;55.30;;;;;;5059163;28;1045;-40
2022/01/03 14:18:47;;;;;;;;;;;22.90;55.40;;;;;;5057767;28;882;-40
2022/01/03 14:21:15;;;;;;;;;;;22.90;55.30;;;;;;5057710;28;954;-41
2022/01/03 14:23:45;;;;;;;;;;;23.00;55.10;;;;;;5058376;28;2003;-43
2022/01/03 14:26:16;;;;;;;;;;;22.90;55.20;;;;;;5058081;28;1886;-40
2022/01/03 14:28:43;;;;;;;;;;;22.90;55.20;;;;;;5059868;28;908;-39
2022/01/03 14:31:11;;;;;;;;;;;22.90;55.30;;;;;;5058326;28;1014;-42
2022/01/03 14:33:39;;;;;;;;;;;22.90;55.40;;;;;;5058084;28;1016;-40
2022/01/03 14:36:16;;;;;;;;;;;22.90;55.50;;;;;;5057570;28;910;-42
2022/01/03 14:38:45;;;;;;;;;;;22.90;55.60;;;;;;5058047;28;933;-44
2022/01/03 14:41:21;;;;;;;;;;;22.90;55.50;;;;;;5058092;28;1005;-39
2022/01/03 14:43:54;;;;;;;;;;;22.90;55.50;;;;;;5058880;28;1971;-42
2022/01/03 14:46:28;;;;;;;;;;;22.90;55.50;;;;;;5057701;28;1009;-41
2022/01/03 14:48:55;;;;;;;;;;;22.90;55.40;;;;;;5058020;28;1016;-40
2022/01/03 14:51:22;;;;;;;;;;;22.90;55.40;;;;;;5058324;28;1000;-41
2022/01/03 14:53:49;;;;;;;;;;;22.90;55.40;;;;;;5058615;28;1029;-40
2022/01/03 14:56:25;;;;;;;;;;;22.90;55.30;;;;;;5058905;28;1045;-41
2022/01/03 14:59:08;;;;;;;;;;;23.00;55.50;;;;;;5058777;28;956;-39
2022/01/03 15:01:36;;;;;;;;;;;22.90;55.40;;;;;;5058881;28;981;-41
2022/01/03 15:04:03;;;;;;;;;;;22.90;55.50;;;;;;5058243;28;1902;-41
2022/01/03 15:06:30;;;;;;;;;;;22.90;55.50;;;;;;5059411;28;1044;-40
2022/01/03 15:08:56;;;;;;;;;;;22.90;55.50;;;;;;5058743;28;997;-41
2022/01/03 15:11:23;;;;;;;;;;;22.90;55.70;;;;;;5059230;28;1145;-39
2022/01/03 15:13:50;;;;;;;;;;;22.90;55.60;;;;;;5059092;28;946;-41